Permanente, California
Current Conditions -  °F | °C
As of 8:56 AM on Friday 24 Oct 2014 (Local Time) from KNUQ Reporting Station
Clear Clear  
Wind Chill: 60°   Ceiling: Unl
Heat Index: 60°   Visibility: 10mi
Dew Point: 58°   Wind: 3mph
Humidity: 93%   Direction: 110°ESE
Pressure: 29.98"   Gusts: NA
Location:  37.305°N, 122.094°W
Report Text: KNUQ 241556Z 11003KT 10SM CLR 16/14 A2998 RMK AO2 SLP155 T01560144
Loading
Personal Weather Stations






























Interactive Weather Map New forecast layout! Learn more

10-Day Weather Forecast

Advertisements
Track Severe Weather on mobile